sensor_id;sensor_type;location;lat;lon;timestamp;temperature;humidity
18041;DHT22;9145;48.588;9.250;2023-09-12T00:00:11;20.70;99.90
18041;DHT22;9145;48.588;9.250;2023-09-12T00:02:38;20.60;99.90
18041;DHT22;9145;48.588;9.250;2023-09-12T00:05:07;20.50;99.90
18041;DHT22;9145;48.588;9.250;2023-09-12T00:07:34;20.30;99.90
18041;DHT22;9145;48.588;9.250;2023-09-12T00:10:01;20.20;99.90
18041;DHT22;9145;48.588;9.250;2023-09-12T00:12:28;20.10;99.90
18041;DHT22;9145;48.588;9.250;2023-09-12T00:14:55;20.10;99.90
18041;DHT22;9145;48.588;9.250;2023-09-12T00:17:22;20.00;99.90
18041;DHT22;9145;48.588;9.250;2023-09-12T00:19:48;19.90;99.90
18041;DHT22;9145;48.588;9.250;2023-09-12T00:22:17;19.90;99.90
18041;DHT22;9145;48.588;9.250;2023-09-12T00:24:43;19.90;99.90
18041;DHT22;9145;48.588;9.250;2023-09-12T00:27:10;20.00;99.90
18041;DHT22;9145;48.588;9.250;2023-09-12T00:29:37;20.00;99.90
18041;DHT22;9145;48.588;9.250;2023-09-12T00:32:04;20.00;99.90
18041;DHT22;9145;48.588;9.250;2023-09-12T00:34:31;20.00;99.90
18041;DHT22;9145;48.588;9.250;2023-09-12T00:36:58;20.00;99.90
18041;DHT22;9145;48.588;9.250;2023-09-12T00:39:26;20.00;99.90
18041;DHT22;9145;48.588;9.250;2023-09-12T00:41:53;20.00;99.90
18041;DHT22;9145;48.588;9.250;2023-09-12T00:44:19;19.90;99.90
18041;DHT22;9145;48.588;9.250;2023-09-12T00:46:48;19.90;99.90
18041;DHT22;9145;48.588;9.250;2023-09-12T00:49:16;19.90;99.90
18041;DHT22;9145;48.588;9.250;2023-09-12T00:51:44;19.90;99.90
18041;DHT22;9145;48.588;9.250;2023-09-12T00:54:11;19.90;99.90
18041;DHT22;9145;48.588;9.250;2023-09-12T00:56:40;19.90;99.90
18041;DHT22;9145;48.588;9.250;2023-09-12T00:59:07;20.00;99.90
18041;DHT22;9145;48.588;9.250;2023-09-12T01:01:34;20.00;99.90
18041;DHT22;9145;48.588;9.250;2023-09-12T01:04:02;20.00;99.90
18041;DHT22;9145;48.588;9.250;2023-09-12T01:06:29;20.10;99.90
18041;DHT22;9145;48.588;9.250;2023-09-12T01:08:58;20.10;99.90
18041;DHT22;9145;48.588;9.250;2023-09-12T01:11:24;20.10;99.90
18041;DHT22;9145;48.588;9.250;2023-09-12T01:13:53;20.10;99.90
18041;DHT22;9145;48.588;9.250;2023-09-12T01:16:19;20.00;99.90
18041;DHT22;9145;48.588;9.250;2023-09-12T01:18:46;19.80;99.90
18041;DHT22;9145;48.588;9.250;2023-09-12T01:21:38;19.60;99.90
18041;DHT22;9145;48.588;9.250;2023-09-12T01:27:20;19.30;99.90
18041;DHT22;9145;48.588;9.250;2023-09-12T01:29:51;19.20;99.90
18041;DHT22;9145;48.588;9.250;2023-09-12T01:32:20;19.20;99.90
18041;DHT22;9145;48.588;9.250;2023-09-12T01:34:47;19.20;99.90
18041;DHT22;9145;48.588;9.250;2023-09-12T01:37:14;19.30;99.90
18041;DHT22;9145;48.588;9.250;2023-09-12T01:39:41;19.30;99.90
18041;DHT22;9145;48.588;9.250;2023-09-12T01:42:11;19.40;99.90
18041;DHT22;9145;48.588;9.250;2023-09-12T01:44:39;19.40;99.90
18041;DHT22;9145;48.588;9.250;2023-09-12T01:47:08;19.40;99.90
18041;DHT22;9145;48.588;9.250;2023-09-12T01:49:37;19.40;99.90
18041;DHT22;9145;48.588;9.250;2023-09-12T01:52:06;19.40;99.90
18041;DHT22;9145;48.588;9.250;2023-09-12T01:54:34;19.40;99.90
18041;DHT22;9145;48.588;9.250;2023-09-12T01:57:01;19.30;99.90
18041;DHT22;9145;48.588;9.250;2023-09-12T01:59:29;19.30;99.90
18041;DHT22;9145;48.588;9.250;2023-09-12T02:01:57;19.30;99.90
18041;DHT22;9145;48.588;9.250;2023-09-12T02:04:24;19.30;99.90
18041;DHT22;9145;48.588;9.250;2023-09-12T02:06:51;19.30;99.90
18041;DHT22;9145;48.588;9.250;2023-09-12T02:09:18;19.40;99.90
18041;DHT22;9145;48.588;9.250;2023-09-12T02:11:45;19.30;99.90
18041;DHT22;9145;48.588;9.250;2023-09-12T02:14:11;19.40;99.90
18041;DHT22;9145;48.588;9.250;2023-09-12T02:16:38;19.40;99.90
18041;DHT22;9145;48.588;9.250;2023-09-12T02:19:06;19.40;99.90
18041;DHT22;9145;48.588;9.250;2023-09-12T02:21:33;19.40;99.90
18041;DHT22;9145;48.588;9.250;2023-09-12T02:24:00;19.30;99.90
18041;DHT22;9145;48.588;9.250;2023-09-12T02:26:27;19.30;99.90
18041;DHT22;9145;48.588;9.250;2023-09-12T02:28:53;19.30;99.90
18041;DHT22;9145;48.588;9.250;2023-09-12T02:31:20;19.30;99.90
18041;DHT22;9145;48.588;9.250;2023-09-12T02:33:47;19.30;99.90
18041;DHT22;9145;48.588;9.250;2023-09-12T02:36:15;19.30;99.90
18041;DHT22;9145;48.588;9.250;2023-09-12T02:38:42;19.30;99.90
18041;DHT22;9145;48.588;9.250;2023-09-12T02:41:09;19.40;99.90
18041;DHT22;9145;48.588;9.250;2023-09-12T02:43:36;19.40;99.90
18041;DHT22;9145;48.588;9.250;2023-09-12T02:46:02;19.40;99.90
18041;DHT22;9145;48.588;9.250;2023-09-12T02:48:29;19.40;99.90
18041;DHT22;9145;48.588;9.250;2023-09-12T02:50:56;19.30;99.90
18041;DHT22;9145;48.588;9.250;2023-09-12T02:53:24;19.20;99.90
18041;DHT22;9145;48.588;9.250;2023-09-12T02:55:51;19.20;99.90
18041;DHT22;9145;48.588;9.250;2023-09-12T02:58:19;19.10;99.90
18041;DHT22;9145;48.588;9.250;2023-09-12T03:00:46;18.90;99.90
18041;DHT22;9145;48.588;9.250;2023-09-12T03:03:15;18.90;99.90
18041;DHT22;9145;48.588;9.250;2023-09-12T03:05:42;18.90;99.90
18041;DHT22;9145;48.588;9.250;2023-09-12T03:08:09;18.90;99.90
18041;DHT22;9145;48.588;9.250;2023-09-12T03:10:37;19.00;99.90
18041;DHT22;9145;48.588;9.250;2023-09-12T03:13:04;19.10;99.90
18041;DHT22;9145;48.588;9.250;2023-09-12T03:15:35;19.10;99.90
18041;DHT22;9145;48.588;9.250;2023-09-12T03:18:03;19.00;99.90
18041;DHT22;9145;48.588;9.250;2023-09-12T03:20:30;19.00;99.90
18041;DHT22;9145;48.588;9.250;2023-09-12T03:22:57;19.00;99.90
18041;DHT22;9145;48.588;9.250;2023-09-12T03:25:24;19.00;99.90
18041;DHT22;9145;48.588;9.250;2023-09-12T03:27:52;19.00;99.90
18041;DHT22;9145;48.588;9.250;2023-09-12T03:30:20;19.00;99.90
18041;DHT22;9145;48.588;9.250;2023-09-12T03:32:47;18.90;99.90
18041;DHT22;9145;48.588;9.250;2023-09-12T03:35:14;18.90;99.90
18041;DHT22;9145;48.588;9.250;2023-09-12T03:37:40;18.90;99.90
18041;DHT22;9145;48.588;9.250;2023-09-12T03:40:09;18.90;99.90
18041;DHT22;9145;48.588;9.250;2023-09-12T03:42:37;18.90;99.90
18041;DHT22;9145;48.588;9.250;2023-09-12T03:45:06;19.00;99.90
18041;DHT22;9145;48.588;9.250;2023-09-12T03:47:33;18.90;99.90
18041;DHT22;9145;48.588;9.250;2023-09-12T03:50:00;18.80;99.90
18041;DHT22;9145;48.588;9.250;2023-09-12T03:52:27;18.70;99.90
18041;DHT22;9145;48.588;9.250;2023-09-12T03:54:54;18.60;99.90
18041;DHT22;9145;48.588;9.250;2023-09-12T03:57:21;18.40;99.90
18041;DHT22;9145;48.588;9.250;2023-09-12T03:59:48;18.30;99.90
18041;DHT22;9145;48.588;9.250;2023-09-12T04:02:18;18.30;99.90
18041;DHT22;9145;48.588;9.250;2023-09-12T04:04:44;18.30;99.90
18041;DHT22;9145;48.588;9.250;2023-09-12T04:07:11;18.40;99.90
18041;DHT22;9145;48.588;9.250;2023-09-12T04:09:38;18.40;99.90
18041;DHT22;9145;48.588;9.250;2023-09-12T04:12:06;18.50;99.90
18041;DHT22;9145;48.588;9.250;2023-09-12T04:14:34;18.50;99.90
18041;DHT22;9145;48.588;9.250;2023-09-12T04:17:01;18.60;99.90
18041;DHT22;9145;48.588;9.250;2023-09-12T04:19:30;18.60;99.90
18041;DHT22;9145;48.588;9.250;2023-09-12T04:21:57;18.50;99.90
18041;DHT22;9145;48.588;9.250;2023-09-12T04:24:25;18.40;99.90
18041;DHT22;9145;48.588;9.250;2023-09-12T04:26:53;18.30;99.90
18041;DHT22;9145;48.588;9.250;2023-09-12T04:29:20;18.20;99.90
18041;DHT22;9145;48.588;9.250;2023-09-12T04:31:46;18.20;99.90
18041;DHT22;9145;48.588;9.250;2023-09-12T04:34:13;18.20;99.90
18041;DHT22;9145;48.588;9.250;2023-09-12T04:36:41;18.20;99.90
18041;DHT22;9145;48.588;9.250;2023-09-12T04:39:08;18.30;99.90
18041;DHT22;9145;48.588;9.250;2023-09-12T04:41:35;18.30;99.90
18041;DHT22;9145;48.588;9.250;2023-09-12T04:44:03;18.40;99.90
18041;DHT22;9145;48.588;9.250;2023-09-12T04:46:30;18.40;99.90
18041;DHT22;9145;48.588;9.250;2023-09-12T04:48:56;18.40;99.90
18041;DHT22;9145;48.588;9.250;2023-09-12T04:51:23;18.40;99.90
18041;DHT22;9145;48.588;9.250;2023-09-12T04:53:53;18.30;99.90
18041;DHT22;9145;48.588;9.250;2023-09-12T04:56:20;18.30;99.90
18041;DHT22;9145;48.588;9.250;2023-09-12T04:58:49;18.40;99.90
18041;DHT22;9145;48.588;9.250;2023-09-12T05:01:16;18.30;99.90
18041;DHT22;9145;48.588;9.250;2023-09-12T05:03:43;18.20;99.90
18041;DHT22;9145;48.588;9.250;2023-09-12T05:06:12;18.20;99.90
18041;DHT22;9145;48.588;9.250;2023-09-12T05:08:39;18.20;99.90
18041;DHT22;9145;48.588;9.250;2023-09-12T05:11:08;18.10;99.90
18041;DHT22;9145;48.588;9.250;2023-09-12T05:13:35;18.10;99.90
18041;DHT22;9145;48.588;9.250;2023-09-12T05:16:02;18.10;99.90
18041;DHT22;9145;48.588;9.250;2023-09-12T05:18:29;18.10;99.90
18041;DHT22;9145;48.588;9.250;2023-09-12T05:20:56;18.10;99.90
18041;DHT22;9145;48.588;9.250;2023-09-12T05:23:23;18.00;99.90
18041;DHT22;9145;48.588;9.250;2023-09-12T05:25:49;18.10;99.90
18041;DHT22;9145;48.588;9.250;2023-09-12T05:28:18;18.00;99.90
18041;DHT22;9145;48.588;9.250;2023-09-12T05:30:44;18.00;99.90
18041;DHT22;9145;48.588;9.250;2023-09-12T05:33:11;18.10;99.90
18041;DHT22;9145;48.588;9.250;2023-09-12T05:35:38;18.00;99.90
18041;DHT22;9145;48.588;9.250;2023-09-12T05:38:05;18.00;99.90
18041;DHT22;9145;48.588;9.250;2023-09-12T05:40:32;18.00;99.90
18041;DHT22;9145;48.588;9.250;2023-09-12T05:42:59;17.90;99.90
18041;DHT22;9145;48.588;9.250;2023-09-12T05:45:28;18.00;99.90
18041;DHT22;9145;48.588;9.250;2023-09-12T05:47:55;18.00;99.90
18041;DHT22;9145;48.588;9.250;2023-09-12T05:50:22;18.10;99.90
18041;DHT22;9145;48.588;9.250;2023-09-12T05:52:49;18.10;99.90
18041;DHT22;9145;48.588;9.250;2023-09-12T05:55:16;18.20;99.90
18041;DHT22;9145;48.588;9.250;2023-09-12T05:57:43;18.20;99.90
18041;DHT22;9145;48.588;9.250;2023-09-12T06:00:11;18.40;99.90
18041;DHT22;9145;48.588;9.250;2023-09-12T06:02:39;18.50;99.90
18041;DHT22;9145;48.588;9.250;2023-09-12T06:05:07;18.60;99.90
18041;DHT22;9145;48.588;9.250;2023-09-12T06:07:34;18.70;99.90
18041;DHT22;9145;48.588;9.250;2023-09-12T06:10:01;18.80;99.90
18041;DHT22;9145;48.588;9.250;2023-09-12T06:12:29;18.90;99.90
18041;DHT22;9145;48.588;9.250;2023-09-12T06:14:55;18.90;99.90
18041;DHT22;9145;48.588;9.250;2023-09-12T06:17:22;19.00;99.90
18041;DHT22;9145;48.588;9.250;2023-09-12T06:19:51;19.10;99.90
18041;DHT22;9145;48.588;9.250;2023-09-12T06:22:17;19.10;99.90
18041;DHT22;9145;48.588;9.250;2023-09-12T06:24:45;19.20;99.90
18041;DHT22;9145;48.588;9.250;2023-09-12T06:27:12;19.30;99.90
18041;DHT22;9145;48.588;9.250;2023-09-12T06:29:44;19.40;99.90
18041;DHT22;9145;48.588;9.250;2023-09-12T06:32:10;19.50;99.90
18041;DHT22;9145;48.588;9.250;2023-09-12T06:34:37;19.50;99.90
18041;DHT22;9145;48.588;9.250;2023-09-12T06:37:05;19.60;99.90
18041;DHT22;9145;48.588;9.250;2023-09-12T06:39:32;19.70;99.90
18041;DHT22;9145;48.588;9.250;2023-09-12T06:41:59;19.80;99.90
18041;DHT22;9145;48.588;9.250;2023-09-12T06:44:26;19.90;99.90
18041;DHT22;9145;48.588;9.250;2023-09-12T06:46:52;20.00;99.90
18041;DHT22;9145;48.588;9.250;2023-09-12T06:49:19;20.00;99.90
18041;DHT22;9145;48.588;9.250;2023-09-12T06:51:46;20.00;99.90
18041;DHT22;9145;48.588;9.250;2023-09-12T06:54:14;20.00;99.90
18041;DHT22;9145;48.588;9.250;2023-09-12T06:56:41;20.00;99.90
18041;DHT22;9145;48.588;9.250;2023-09-12T06:59:08;20.10;99.90
18041;DHT22;9145;48.588;9.250;2023-09-12T07:01:35;20.10;99.90
18041;DHT22;9145;48.588;9.250;2023-09-12T07:04:02;20.10;99.90
18041;DHT22;9145;48.588;9.250;2023-09-12T07:06:29;20.10;99.90
18041;DHT22;9145;48.588;9.250;2023-09-12T07:08:56;20.00;99.90
18041;DHT22;9145;48.588;9.250;2023-09-12T07:11:23;19.90;99.90
18041;DHT22;9145;48.588;9.250;2023-09-12T07:13:50;19.80;99.90
18041;DHT22;9145;48.588;9.250;2023-09-12T07:16:17;19.80;99.90
18041;DHT22;9145;48.588;9.250;2023-09-12T07:18:45;19.80;99.90
18041;DHT22;9145;48.588;9.250;2023-09-12T07:21:11;19.80;99.90
18041;DHT22;9145;48.588;9.250;2023-09-12T07:23:38;19.90;99.90
18041;DHT22;9145;48.588;9.250;2023-09-12T07:26:05;20.00;99.90
18041;DHT22;9145;48.588;9.250;2023-09-12T07:28:33;20.00;99.90
18041;DHT22;9145;48.588;9.250;2023-09-12T07:31:00;19.90;99.90
18041;DHT22;9145;48.588;9.250;2023-09-12T07:33:27;20.00;99.90
18041;DHT22;9145;48.588;9.250;2023-09-12T07:35:54;20.00;99.90
18041;DHT22;9145;48.588;9.250;2023-09-12T07:38:21;20.10;99.90
18041;DHT22;9145;48.588;9.250;2023-09-12T07:40:48;20.20;99.90
18041;DHT22;9145;48.588;9.250;2023-09-12T07:43:15;20.30;99.90
18041;DHT22;9145;48.588;9.250;2023-09-12T07:45:43;20.40;99.90
18041;DHT22;9145;48.588;9.250;2023-09-12T07:48:10;20.50;99.90
18041;DHT22;9145;48.588;9.250;2023-09-12T07:50:37;20.60;99.90
18041;DHT22;9145;48.588;9.250;2023-09-12T07:53:05;20.70;99.90
18041;DHT22;9145;48.588;9.250;2023-09-12T07:55:32;20.90;99.90
18041;DHT22;9145;48.588;9.250;2023-09-12T07:58:01;21.00;99.90
18041;DHT22;9145;48.588;9.250;2023-09-12T08:00:28;21.20;99.90
18041;DHT22;9145;48.588;9.250;2023-09-12T08:02:57;21.40;99.90
18041;DHT22;9145;48.588;9.250;2023-09-12T08:05:23;21.60;99.90
18041;DHT22;9145;48.588;9.250;2023-09-12T08:07:50;21.80;99.90
18041;DHT22;9145;48.588;9.250;2023-09-12T08:10:17;22.10;99.90
18041;DHT22;9145;48.588;9.250;2023-09-12T08:12:44;22.20;99.90
18041;DHT22;9145;48.588;9.250;2023-09-12T08:15:11;22.40;99.90
18041;DHT22;9145;48.588;9.250;2023-09-12T08:17:38;22.40;99.90
18041;DHT22;9145;48.588;9.250;2023-09-12T08:20:08;22.50;99.90
18041;DHT22;9145;48.588;9.250;2023-09-12T08:22:35;22.60;99.90
18041;DHT22;9145;48.588;9.250;2023-09-12T08:25:03;22.70;99.90
18041;DHT22;9145;48.588;9.250;2023-09-12T08:27:30;22.80;99.90
18041;DHT22;9145;48.588;9.250;2023-09-12T08:29:56;22.90;99.90
18041;DHT22;9145;48.588;9.250;2023-09-12T08:32:23;23.00;99.90
18041;DHT22;9145;48.588;9.250;2023-09-12T08:34:50;23.10;99.90
18041;DHT22;9145;48.588;9.250;2023-09-12T08:37:18;23.10;99.90
18041;DHT22;9145;48.588;9.250;2023-09-12T08:39:45;23.10;99.90
18041;DHT22;9145;48.588;9.250;2023-09-12T08:42:13;23.20;99.90
18041;DHT22;9145;48.588;9.250;2023-09-12T08:44:41;23.20;99.90
18041;DHT22;9145;48.588;9.250;2023-09-12T08:47:08;23.10;99.90
18041;DHT22;9145;48.588;9.250;2023-09-12T08:49:36;23.10;99.90
18041;DHT22;9145;48.588;9.250;2023-09-12T08:52:04;23.10;99.90
18041;DHT22;9145;48.588;9.250;2023-09-12T08:54:32;23.10;99.90
18041;DHT22;9145;48.588;9.250;2023-09-12T08:57:01;23.10;99.90
18041;DHT22;9145;48.588;9.250;2023-09-12T08:59:29;23.20;99.90
18041;DHT22;9145;48.588;9.250;2023-09-12T09:01:58;23.30;99.90
18041;DHT22;9145;48.588;9.250;2023-09-12T09:04:28;23.50;99.90
18041;DHT22;9145;48.588;9.250;2023-09-12T09:06:58;23.70;99.90
18041;DHT22;9145;48.588;9.250;2023-09-12T09:09:26;23.90;99.90
18041;DHT22;9145;48.588;9.250;2023-09-12T09:11:55;24.10;99.90
18041;DHT22;9145;48.588;9.250;2023-09-12T09:14:21;24.30;99.90
18041;DHT22;9145;48.588;9.250;2023-09-12T09:16:49;24.50;99.90
18041;DHT22;9145;48.588;9.250;2023-09-12T09:19:16;24.70;99.90
18041;DHT22;9145;48.588;9.250;2023-09-12T09:21:44;24.90;99.90
18041;DHT22;9145;48.588;9.250;2023-09-12T09:24:13;25.10;99.90
18041;DHT22;9145;48.588;9.250;2023-09-12T09:26:43;25.20;99.90
18041;DHT22;9145;48.588;9.250;2023-09-12T09:29:14;25.30;99.90
18041;DHT22;9145;48.588;9.250;2023-09-12T09:31:42;25.30;99.90
18041;DHT22;9145;48.588;9.250;2023-09-12T09:34:13;25.50;99.90
18041;DHT22;9145;48.588;9.250;2023-09-12T09:36:44;25.50;99.90
18041;DHT22;9145;48.588;9.250;2023-09-12T09:39:11;25.70;99.90
18041;DHT22;9145;48.588;9.250;2023-09-12T09:41:39;25.80;99.90
18041;DHT22;9145;48.588;9.250;2023-09-12T09:44:07;26.00;99.90
18041;DHT22;9145;48.588;9.250;2023-09-12T09:46:37;26.00;99.90
18041;DHT22;9145;48.588;9.250;2023-09-12T09:49:04;26.20;99.90
18041;DHT22;9145;48.588;9.250;2023-09-12T09:51:32;26.40;99.90
18041;DHT22;9145;48.588;9.250;2023-09-12T09:53:59;26.60;99.90
18041;DHT22;9145;48.588;9.250;2023-09-12T09:56:26;26.80;99.90
18041;DHT22;9145;48.588;9.250;2023-09-12T09:58:54;27.00;99.90
18041;DHT22;9145;48.588;9.250;2023-09-12T10:01:23;27.20;99.90
18041;DHT22;9145;48.588;9.250;2023-09-12T10:03:52;27.30;99.90
18041;DHT22;9145;48.588;9.250;2023-09-12T10:06:20;27.40;99.90
18041;DHT22;9145;48.588;9.250;2023-09-12T10:08:50;27.50;99.90
18041;DHT22;9145;48.588;9.250;2023-09-12T10:11:19;27.70;99.90
18041;DHT22;9145;48.588;9.250;2023-09-12T10:13:49;27.80;99.90
18041;DHT22;9145;48.588;9.250;2023-09-12T10:16:21;27.90;99.90
18041;DHT22;9145;48.588;9.250;2023-09-12T10:18:57;28.00;99.90
18041;DHT22;9145;48.588;9.250;2023-09-12T10:21:29;28.20;99.90
18041;DHT22;9145;48.588;9.250;2023-09-12T10:23:58;28.10;99.90
18041;DHT22;9145;48.588;9.250;2023-09-12T10:26:25;28.20;99.90
18041;DHT22;9145;48.588;9.250;2023-09-12T10:28:54;28.30;99.90
18041;DHT22;9145;48.588;9.250;2023-09-12T10:31:22;28.40;99.90
18041;DHT22;9145;48.588;9.250;2023-09-12T10:33:50;28.30;99.90
18041;DHT22;9145;48.588;9.250;2023-09-12T10:36:19;28.20;99.90
18041;DHT22;9145;48.588;9.250;2023-09-12T10:38:48;28.50;99.90
18041;DHT22;9145;48.588;9.250;2023-09-12T10:41:15;28.60;99.90
18041;DHT22;9145;48.588;9.250;2023-09-12T10:43:44;28.80;99.90
18041;DHT22;9145;48.588;9.250;2023-09-12T10:46:15;28.90;99.90
18041;DHT22;9145;48.588;9.250;2023-09-12T10:48:42;29.00;99.90
18041;DHT22;9145;48.588;9.250;2023-09-12T10:51:10;29.20;99.90
18041;DHT22;9145;48.588;9.250;2023-09-12T10:53:45;29.30;99.90
18041;DHT22;9145;48.588;9.250;2023-09-12T10:56:16;29.50;99.90
18041;DHT22;9145;48.588;9.250;2023-09-12T10:59:13;29.60;99.90
18041;DHT22;9145;48.588;9.250;2023-09-12T11:01:42;29.70;99.90
18041;DHT22;9145;48.588;9.250;2023-09-12T11:04:30;29.80;99.90
18041;DHT22;9145;48.588;9.250;2023-09-12T11:06:59;29.90;99.90
18041;DHT22;9145;48.588;9.250;2023-09-12T11:09:27;30.00;99.90
18041;DHT22;9145;48.588;9.250;2023-09-12T11:11:57;30.10;99.90
18041;DHT22;9145;48.588;9.250;2023-09-12T11:14:25;30.30;99.90
18041;DHT22;9145;48.588;9.250;2023-09-12T11:17:22;30.40;99.90
18041;DHT22;9145;48.588;9.250;2023-09-12T11:19:51;30.60;99.90
18041;DHT22;9145;48.588;9.250;2023-09-12T11:22:23;30.80;99.90
18041;DHT22;9145;48.588;9.250;2023-09-12T11:24:51;31.10;99.90
18041;DHT22;9145;48.588;9.250;2023-09-12T11:27:18;31.20;99.90
18041;DHT22;9145;48.588;9.250;2023-09-12T11:29:45;31.20;99.90
18041;DHT22;9145;48.588;9.250;2023-09-12T11:32:25;31.10;99.40
18041;DHT22;9145;48.588;9.250;2023-09-12T11:34:52;31.10;98.00
18041;DHT22;9145;48.588;9.250;2023-09-12T11:37:23;31.20;98.60
18041;DHT22;9145;48.588;9.250;2023-09-12T11:39:53;31.30;97.40
18041;DHT22;9145;48.588;9.250;2023-09-12T11:42:20;31.60;96.50
18041;DHT22;9145;48.588;9.250;2023-09-12T11:44:51;31.70;98.60
18041;DHT22;9145;48.588;9.250;2023-09-12T11:47:18;31.80;97.60
18041;DHT22;9145;48.588;9.250;2023-09-12T11:49:46;31.80;96.50
18041;DHT22;9145;48.588;9.250;2023-09-12T11:52:14;32.00;97.20
18041;DHT22;9145;48.588;9.250;2023-09-12T11:54:42;32.30;95.70
18041;DHT22;9145;48.588;9.250;2023-09-12T11:57:13;32.50;97.80
18041;DHT22;9145;48.588;9.250;2023-09-12T11:59:41;32.70;95.90
18041;DHT22;9145;48.588;9.250;2023-09-12T12:02:09;32.70;96.30
18041;DHT22;9145;48.588;9.250;2023-09-12T12:04:37;32.70;94.80
18041;DHT22;9145;48.588;9.250;2023-09-12T12:07:04;32.60;93.50
18041;DHT22;9145;48.588;9.250;2023-09-12T12:09:31;32.60;94.10
18041;DHT22;9145;48.588;9.250;2023-09-12T12:12:03;32.60;94.60
18041;DHT22;9145;48.588;9.250;2023-09-12T12:14:33;32.80;95.80
18041;DHT22;9145;48.588;9.250;2023-09-12T12:17:05;32.90;94.70
18041;DHT22;9145;48.588;9.250;2023-09-12T12:19:33;32.90;93.10
18041;DHT22;9145;48.588;9.250;2023-09-12T12:22:00;32.90;93.80
18041;DHT22;9145;48.588;9.250;2023-09-12T12:24:36;33.10;94.30
18041;DHT22;9145;48.588;9.250;2023-09-12T12:27:03;33.20;96.40
18041;DHT22;9145;48.588;9.250;2023-09-12T12:29:32;33.50;96.00
18041;DHT22;9145;48.588;9.250;2023-09-12T12:31:59;33.40;95.90
18041;DHT22;9145;48.588;9.250;2023-09-12T12:34:27;33.50;93.40
18041;DHT22;9145;48.588;9.250;2023-09-12T12:36:54;33.50;94.00
18041;DHT22;9145;48.588;9.250;2023-09-12T12:39:21;33.60;94.30
18041;DHT22;9145;48.588;9.250;2023-09-12T12:41:48;33.70;94.20
18041;DHT22;9145;48.588;9.250;2023-09-12T12:44:18;33.90;94.70
18041;DHT22;9145;48.588;9.250;2023-09-12T12:46:50;34.00;92.40
18041;DHT22;9145;48.588;9.250;2023-09-12T12:49:17;33.90;91.90
18041;DHT22;9145;48.588;9.250;2023-09-12T12:51:45;34.00;93.00
18041;DHT22;9145;48.588;9.250;2023-09-12T12:54:12;34.20;93.00
18041;DHT22;9145;48.588;9.250;2023-09-12T12:56:40;34.30;92.80
18041;DHT22;9145;48.588;9.250;2023-09-12T12:59:07;34.60;92.60
18041;DHT22;9145;48.588;9.250;2023-09-12T13:01:35;34.30;93.40
18041;DHT22;9145;48.588;9.250;2023-09-12T13:04:05;34.30;91.50
18041;DHT22;9145;48.588;9.250;2023-09-12T13:06:33;34.10;92.30
18041;DHT22;9145;48.588;9.250;2023-09-12T13:09:02;34.00;92.20
18041;DHT22;9145;48.588;9.250;2023-09-12T13:11:31;33.80;92.90
18041;DHT22;9145;48.588;9.250;2023-09-12T13:13:58;34.00;92.10
18041;DHT22;9145;48.588;9.250;2023-09-12T13:16:25;33.80;92.50
18041;DHT22;9145;48.588;9.250;2023-09-12T13:18:52;33.90;92.40
18041;DHT22;9145;48.588;9.250;2023-09-12T13:21:20;34.10;92.60
18041;DHT22;9145;48.588;9.250;2023-09-12T13:23:47;34.50;93.10
18041;DHT22;9145;48.588;9.250;2023-09-12T13:26:14;34.80;91.00
18041;DHT22;9145;48.588;9.250;2023-09-12T13:28:41;34.70;89.00
18041;DHT22;9145;48.588;9.250;2023-09-12T13:31:07;34.70;89.30
18041;DHT22;9145;48.588;9.250;2023-09-12T13:33:34;34.60;89.90
18041;DHT22;9145;48.588;9.250;2023-09-12T13:36:01;34.40;87.90
18041;DHT22;9145;48.588;9.250;2023-09-12T13:38:30;34.20;86.20
18041;DHT22;9145;48.588;9.250;2023-09-12T13:40:57;34.00;88.90
18041;DHT22;9145;48.588;9.250;2023-09-12T13:43:24;33.90;90.00
18041;DHT22;9145;48.588;9.250;2023-09-12T13:45:50;33.90;88.50
18041;DHT22;9145;48.588;9.250;2023-09-12T13:48:17;34.00;89.10
18041;DHT22;9145;48.588;9.250;2023-09-12T13:50:44;34.20;90.10
18041;DHT22;9145;48.588;9.250;2023-09-12T13:53:11;34.30;88.90
18041;DHT22;9145;48.588;9.250;2023-09-12T13:55:39;34.30;88.50
18041;DHT22;9145;48.588;9.250;2023-09-12T13:58:06;34.00;88.50
18041;DHT22;9145;48.588;9.250;2023-09-12T14:00:34;33.80;90.00
18041;DHT22;9145;48.588;9.250;2023-09-12T14:03:01;33.60;87.90
18041;DHT22;9145;48.588;9.250;2023-09-12T14:05:28;33.20;88.80
18041;DHT22;9145;48.588;9.250;2023-09-12T14:07:55;33.10;89.50
18041;DHT22;9145;48.588;9.250;2023-09-12T14:10:22;33.10;89.60
18041;DHT22;9145;48.588;9.250;2023-09-12T14:12:50;33.10;90.40
18041;DHT22;9145;48.588;9.250;2023-09-12T14:15:17;33.00;90.00
18041;DHT22;9145;48.588;9.250;2023-09-12T14:17:44;32.70;89.10
18041;DHT22;9145;48.588;9.250;2023-09-12T14:20:11;32.50;90.00
18041;DHT22;9145;48.588;9.250;2023-09-12T14:22:41;32.30;91.40
18041;DHT22;9145;48.588;9.250;2023-09-12T14:25:08;32.10;91.40
18041;DHT22;9145;48.588;9.250;2023-09-12T14:27:40;32.00;91.10
18041;DHT22;9145;48.588;9.250;2023-09-12T14:30:10;31.90;91.40
18041;DHT22;9145;48.588;9.250;2023-09-12T14:32:38;31.80;91.30
18041;DHT22;9145;48.588;9.250;2023-09-12T14:35:06;31.70;91.30
18041;DHT22;9145;48.588;9.250;2023-09-12T14:37:34;31.60;91.50
18041;DHT22;9145;48.588;9.250;2023-09-12T14:40:04;31.60;92.40
18041;DHT22;9145;48.588;9.250;2023-09-12T14:42:31;31.50;92.60
18041;DHT22;9145;48.588;9.250;2023-09-12T14:44:58;31.40;93.20
18041;DHT22;9145;48.588;9.250;2023-09-12T14:47:26;31.30;92.90
18041;DHT22;9145;48.588;9.250;2023-09-12T14:49:55;31.30;93.70
18041;DHT22;9145;48.588;9.250;2023-09-12T14:52:22;31.20;93.00
18041;DHT22;9145;48.588;9.250;2023-09-12T14:54:51;31.20;93.30
18041;DHT22;9145;48.588;9.250;2023-09-12T14:57:18;31.10;93.70
18041;DHT22;9145;48.588;9.250;2023-09-12T14:59:45;31.00;93.90
18041;DHT22;9145;48.588;9.250;2023-09-12T15:02:12;30.90;94.40
18041;DHT22;9145;48.588;9.250;2023-09-12T15:04:40;30.80;94.40
18041;DHT22;9145;48.588;9.250;2023-09-12T15:07:07;30.70;94.30
18041;DHT22;9145;48.588;9.250;2023-09-12T15:09:34;30.50;94.70
18041;DHT22;9145;48.588;9.250;2023-09-12T15:12:01;30.30;95.20
18041;DHT22;9145;48.588;9.250;2023-09-12T15:14:28;30.20;95.80
18041;DHT22;9145;48.588;9.250;2023-09-12T15:16:56;30.20;96.40
18041;DHT22;9145;48.588;9.250;2023-09-12T15:19:24;30.20;96.30
18041;DHT22;9145;48.588;9.250;2023-09-12T15:21:52;30.20;96.70
18041;DHT22;9145;48.588;9.250;2023-09-12T15:24:19;30.20;96.80
18041;DHT22;9145;48.588;9.250;2023-09-12T15:26:46;30.00;96.40
18041;DHT22;9145;48.588;9.250;2023-09-12T15:29:13;29.90;96.60
18041;DHT22;9145;48.588;9.250;2023-09-12T15:31:39;29.90;97.00
18041;DHT22;9145;48.588;9.250;2023-09-12T15:34:06;29.80;96.80
18041;DHT22;9145;48.588;9.250;2023-09-12T15:36:41;29.70;97.60
18041;DHT22;9145;48.588;9.250;2023-09-12T15:39:09;29.70;97.70
18041;DHT22;9145;48.588;9.250;2023-09-12T15:41:36;29.70;97.60
18041;DHT22;9145;48.588;9.250;2023-09-12T15:44:03;29.60;98.20
18041;DHT22;9145;48.588;9.250;2023-09-12T15:46:30;29.50;98.90
18041;DHT22;9145;48.588;9.250;2023-09-12T15:48:57;29.40;98.50
18041;DHT22;9145;48.588;9.250;2023-09-12T15:51:24;29.40;98.30